Time;durP1;ratioP1;P1;durP2;ratioP2;P2;SDS_P1;SDS_P2;PMS_P1;PMS_P2;Temp;Humidity;BMP_temperature;BMP_pressure;BME280_temperature;BME280_humidity;BME280_pressure;Samples;Min_cycle;Max_cycle;Signal;HPM_P1;HPM_P2
2022/04/14 02:43:21;;;;;;;20.52;9.68;;;;;;;7.42;47.42;99601.04;1800163;79;22560;-36
2022/04/14 02:45:47;;;;;;;21.17;10.05;;;;;;;7.36;47.01;99596.05;1761672;80;21043;-35
2022/04/14 02:48:12;;;;;;;24.32;10.05;;;;;;;7.36;47.35;99599.97;1761758;80;20963;-36
2022/04/14 02:50:43;;;;;;;23.73;9.93;;;;;;;7.38;46.62;99595.53;1761860;81;20991;-35
2022/04/14 02:53:06;;;;;;;26.02;10.35;;;;;;;7.36;46.65;99593.44;1761313;80;21043;-37
2022/04/14 02:55:32;;;;;;;24.47;10.10;;;;;;;7.35;46.99;99596.95;1761472;81;20980;-36
2022/04/14 02:57:57;;;;;;;19.87;10.50;;;;;;;7.36;46.74;99590.81;1761773;80;20987;-36
2022/04/14 03:00:23;;;;;;;26.57;10.30;;;;;;;7.33;46.78;99585.69;1761710;81;21426;-36
2022/04/14 03:02:49;;;;;;;23.32;11.03;;;;;;;7.33;46.82;99583.07;1761796;81;21034;-37
2022/04/14 03:05:14;;;;;;;22.45;10.08;;;;;;;7.29;46.94;99584.52;1761780;80;20991;-37
2022/04/14 03:07:40;;;;;;;18.90;9.90;;;;;;;7.32;46.70;99582.23;1761836;81;21543;-35
2022/04/14 03:10:07;;;;;;;19.32;9.73;;;;;;;7.34;46.63;99580.41;1761767;80;21475;-39
2022/04/14 03:12:46;;;;;;;19.60;9.87;;;;;;;7.33;46.67;99583.95;1762065;80;21500;-38
2022/04/14 03:15:12;;;;;;;19.27;9.23;;;;;;;7.33;47.27;99583.07;1761786;81;21660;-36
2022/04/14 03:17:38;;;;;;;20.45;10.05;;;;;;;7.32;46.80;99579.61;1761851;81;20978;-36
2022/04/14 03:20:05;;;;;;;22.32;10.50;;;;;;;7.31;46.91;99577.89;1761714;81;20999;-34
2022/04/14 03:22:34;;;;;;;25.10;10.15;;;;;;;7.30;46.89;99580.97;1761793;80;21485;-37
2022/04/14 03:25:05;;;;;;;23.02;9.80;;;;;;;7.28;47.13;99578.03;1760849;81;20948;-35
2022/04/14 03:27:32;;;;;;;22.67;10.18;;;;;;;7.29;47.10;99579.28;1761656;81;21024;-34
2022/04/14 03:29:58;;;;;;;22.85;10.03;;;;;;;7.28;46.87;99572.80;1761802;81;20991;-35
2022/04/14 03:32:24;;;;;;;28.38;10.43;;;;;;;7.27;46.83;99571.92;1761746;81;20987;-36
2022/04/14 03:34:51;;;;;;;21.23;9.68;;;;;;;7.27;46.93;99569.77;1761737;81;20987;-36
2022/04/14 03:37:17;;;;;;;21.55;10.05;;;;;;;7.25;47.34;99572.44;1761831;81;21449;-36
2022/04/14 03:39:43;;;;;;;17.55;9.23;;;;;;;7.24;47.19;99570.75;1761732;80;21019;-35
2022/04/14 03:42:09;;;;;;;25.62;9.60;;;;;;;7.21;47.20;99572.16;1761659;80;21011;-37
2022/04/14 03:44:35;;;;;;;19.50;10.65;;;;;;;7.23;46.98;99565.57;1761964;81;20984;-38
2022/04/14 03:47:00;;;;;;;18.15;9.28;;;;;;;7.18;47.23;99559.19;1761952;81;20990;-40
2022/04/14 03:49:26;;;;;;;19.98;9.60;;;;;;;7.18;47.08;99562.27;1761997;81;20980;-40
2022/04/14 03:51:54;;;;;;;22.82;10.20;;;;;;;7.11;47.73;99562.94;1762023;81;20983;-41
2022/04/14 03:54:20;;;;;;;23.55;10.25;;;;;;;7.14;47.31;99560.22;1761594;81;21476;-36
2022/04/14 03:56:48;;;;;;;17.35;9.58;;;;;;;7.13;47.51;99558.96;1761460;80;20996;-36
2022/04/14 03:59:13;;;;;;;;;;;;;;;7.14;47.18;99561.52;1763991;81;20979;-35
2022/04/14 04:01:40;;;;;;;23.25;9.85;;;;;;;7.09;48.05;99559.53;1761381;81;20100;-35
2022/04/14 04:04:05;;;;;;;23.67;9.63;;;;;;;7.11;47.29;99557.70;1761505;81;20986;-37
2022/04/14 04:06:31;;;;;;;20.37;9.83;;;;;;;7.10;47.44;99562.55;1761496;81;20987;-37
2022/04/14 04:08:57;;;;;;;26.90;10.82;;;;;;;7.02;48.33;99562.84;1761422;81;20990;-35
2022/04/14 04:11:23;;;;;;;23.60;10.95;;;;;;;7.07;47.92;99554.34;1761467;81;20988;-35
2022/04/14 04:13:49;;;;;;;26.20;11.35;;;;;;;7.06;47.65;99553.97;1761492;81;21019;-35
2022/04/14 04:16:15;;;;;;;29.52;11.15;;;;;;;7.08;47.55;99555.23;1761464;81;20984;-36
2022/04/14 04:18:41;;;;;;;31.87;11.15;;;;;;;7.07;47.48;99557.42;1761455;81;21424;-35
2022/04/14 04:21:06;;;;;;;22.45;11.38;;;;;;;7.06;47.80;99555.73;1761409;81;20992;-35
2022/04/14 04:23:32;;;;;;;34.20;11.50;;;;;;;7.08;47.72;99556.53;1761387;81;20987;-36
2022/04/14 04:25:58;;;;;;;26.02;10.80;;;;;;;7.05;47.92;99554.86;1761361;81;20987;-37
2022/04/14 04:28:30;;;;;;;30.92;10.88;;;;;;;7.05;47.79;99548.79;1761413;81;21032;-34
2022/04/14 04:30:52;;;;;;;;;;;;;;;7.07;48.05;99551.73;1763360;80;21445;-38
2022/04/14 04:33:18;;;;;;;27.73;11.63;;;;;;;7.04;48.46;99551.87;1744488;81;20436;-34
2022/04/14 04:35:44;;;;;;;38.10;11.18;;;;;;;7.01;48.23;99555.05;1761575;81;20987;-35
2022/04/14 04:38:09;;;;;;;24.40;10.20;;;;;;;7.04;48.11;99548.38;1761375;80;20975;-36
2022/04/14 04:40:35;;;;;;;23.75;9.75;;;;;;;7.03;48.00;99548.00;1761404;81;21100;-35
2022/04/14 04:43:01;;;;;;;24.85;10.70;;;;;;;7.03;47.65;99548.00;1761272;81;21012;-36
2022/04/14 04:45:27;;;;;;;20.37;10.20;;;;;;;7.03;47.68;99545.38;1761610;81;20975;-38
2022/04/14 04:47:52;;;;;;;25.35;10.72;;;;;;;7.02;47.86;99546.28;1761420;81;21030;-36
2022/04/14 04:50:18;;;;;;;21.37;10.75;;;;;;;7.07;47.74;99549.58;1761380;81;20994;-36
2022/04/14 04:52:44;;;;;;;22.65;10.38;;;;;;;7.05;48.08;99544.41;1761506;81;20991;-37
2022/04/14 04:55:10;;;;;;;24.67;10.85;;;;;;;7.05;47.73;99543.56;1761462;81;21614;-36
2022/04/14 04:57:35;;;;;;;24.90;10.90;;;;;;;7.06;47.69;99546.59;1761400;81;21499;-35
2022/04/14 05:00:01;;;;;;;28.67;11.05;;;;;;;7.04;48.38;99551.87;1761507;81;20991;-40
2022/04/14 05:02:28;;;;;;;23.27;9.88;;;;;;;7.03;47.95;99538.84;1761438;81;21032;-36
2022/04/14 05:04:54;;;;;;;24.75;10.50;;;;;;;7.04;47.91;99543.15;1761460;80;21480;-36
2022/04/14 05:07:19;;;;;;;25.90;11.28;;;;;;;7.07;47.82;99539.13;1761355;81;21857;-37
2022/04/14 05:09:45;;;;;;;20.12;10.70;;;;;;;7.09;47.95;99542.53;1761460;81;21042;-37
2022/04/14 05:12:11;;;;;;;26.27;10.55;;;;;;;7.07;48.37;99539.97;1761481;81;20995;-36
2022/04/14 05:14:37;;;;;;;30.45;10.95;;;;;;;7.10;48.18;99540.33;1761428;80;20983;-37
2022/04/14 05:17:03;;;;;;;20.75;10.75;;;;;;;7.11;48.03;99534.17;1761366;81;20983;-36
2022/04/14 05:19:28;;;;;;;26.77;10.75;;;;;;;7.14;48.24;99539.76;1761563;81;20999;-35
2022/04/14 05:21:54;;;;;;;22.70;10.58;;;;;;;7.15;47.86;99534.48;1761282;81;20995;-35
2022/04/14 05:24:21;;;;;;;23.95;11.33;;;;;;;7.16;48.07;99532.23;1761397;81;21050;-37
2022/04/14 05:26:47;;;;;;;23.50;10.20;;;;;;;7.21;47.78;99532.08;1761633;81;21023;-36
2022/04/14 05:29:12;;;;;;;25.82;10.48;;;;;;;7.22;47.72;99522.88;1761417;81;21039;-35
2022/04/14 05:31:38;;;;;;;20.50;10.95;;;;;;;7.25;47.65;99516.66;1761396;80;21120;-36
2022/04/14 05:34:04;;;;;;;23.45;11.20;;;;;;;7.27;47.53;99511.75;1761339;80;20991;-36
2022/04/14 05:36:29;;;;;;;21.02;11.45;;;;;;;7.32;47.83;99510.28;1761356;81;20967;-35
2022/04/14 05:38:55;;;;;;;23.87;11.05;;;;;;;7.36;47.39;99511.86;1761429;81;20976;-36
2022/04/14 05:41:21;;;;;;;33.38;11.85;;;;;;;7.43;47.28;99512.02;1761515;80;21051;-36
2022/04/14 05:43:47;;;;;;;24.47;11.25;;;;;;;7.45;47.29;99517.20;1761310;81;21524;-37
2022/04/14 05:46:13;;;;;;;26.83;11.53;;;;;;;7.46;47.33;99518.92;1761698;81;20983;-38
2022/04/14 05:48:39;;;;;;;23.55;10.95;;;;;;;7.52;47.31;99519.13;1761350;81;20990;-35
2022/04/14 05:51:05;;;;;;;21.90;10.20;;;;;;;7.56;47.19;99524.17;1761322;81;21042;-37
2022/04/14 05:53:31;;;;;;;26.55;10.90;;;;;;;7.58;47.27;99521.03;1761369;81;20991;-37
2022/04/14 05:55:56;;;;;;;32.48;10.90;;;;;;;7.65;46.94;99517.73;1761360;81;20975;-40
2022/04/14 05:58:22;;;;;;;30.35;11.15;;;;;;;7.71;46.88;99516.16;1761353;80;20959;-35
2022/04/14 06:00:49;;;;;;;17.82;10.35;;;;;;;7.78;46.72;99515.47;1761444;81;20987;-38
2022/04/14 06:03:14;;;;;;;26.62;11.00;;;;;;;7.82;46.62;99510.06;1761293;80;21500;-35
2022/04/14 06:05:41;;;;;;;27.07;11.00;;;;;;;7.90;46.43;99504.98;1761312;81;21023;-37
2022/04/14 06:08:07;;;;;;;30.48;11.38;;;;;;;7.94;46.51;99501.31;1761323;81;21006;-38
2022/04/14 06:10:34;;;;;;;22.73;10.23;;;;;;;8.01;46.30;99506.22;1761308;81;21494;-36
2022/04/14 06:13:00;;;;;;;22.65;10.90;;;;;;;8.08;46.08;99510.77;1761661;81;21003;-36
2022/04/14 06:15:26;;;;;;;27.42;11.15;;;;;;;8.13;45.98;99511.86;1761316;81;21014;-35
2022/04/14 06:17:52;;;;;;;20.55;10.00;;;;;;;8.17;46.02;99511.69;1761584;81;20991;-36
2022/04/14 06:20:18;;;;;;;24.52;10.35;;;;;;;8.23;45.83;99511.88;1761275;81;21030;-36
2022/04/14 06:22:44;;;;;;;32.55;9.95;;;;;;;8.30;45.76;99510.70;1761284;81;20967;-35
2022/04/14 06:25:13;;;;;;;16.70;9.25;;;;;;;8.36;45.63;99506.50;1761344;81;21049;-36
2022/04/14 06:27:44;;;;;;;22.60;9.65;;;;;;;8.44;45.50;99511.00;1761412;81;20994;-35
2022/04/14 06:30:13;;;;;;;28.00;9.85;;;;;;;8.53;45.58;99511.51;1760140;81;20991;-37
2022/04/14 06:32:39;;;;;;;23.65;9.93;;;;;;;8.61;45.63;99508.11;1761319;81;21483;-37
2022/04/14 06:35:08;;;;;;;27.82;10.23;;;;;;;8.68;45.30;99510.86;1761313;81;21551;-36
2022/04/14 06:37:35;;;;;;;24.02;9.70;;;;;;;8.75;45.39;99513.59;1761341;81;20991;-37
2022/04/14 06:40:02;;;;;;;25.87;9.80;;;;;;;8.83;45.29;99508.85;1761582;81;20990;-39
2022/04/14 06:42:28;;;;;;;21.95;10.23;;;;;;;8.90;45.12;99504.66;1758860;80;21051;-36
2022/04/14 06:44:59;;;;;;;20.72;10.03;;;;;;;8.97;44.91;99501.69;1747999;81;21023;-36
2022/04/14 06:47:28;;;;;;;25.30;10.82;;;;;;;9.07;44.78;99504.73;1747928;81;21523;-36
2022/04/14 06:49:55;;;;;;;26.33;10.55;;;;;;;9.16;44.60;99505.62;1746687;81;21019;-36
2022/04/14 06:52:21;;;;;;;30.10;10.70;;;;;;;9.23;44.57;99504.41;1748276;81;21026;-36
2022/04/14 06:54:48;;;;;;;24.40;10.43;;;;;;;9.32;44.73;99505.77;1748219;81;20972;-38
2022/04/14 06:57:14;;;;;;;25.45;9.83;;;;;;;9.38;44.57;99497.59;1747938;81;20972;-37
2022/04/14 06:59:40;;;;;;;29.92;11.90;;;;;;;9.48;44.48;99500.66;1747952;81;21004;-37
2022/04/14 07:02:07;;;;;;;28.42;11.22;;;;;;;9.58;44.41;99501.05;1747976;81;20996;-38
2022/04/14 07:04:33;;;;;;;25.60;11.28;;;;;;;9.68;44.41;99502.33;1748094;81;20981;-37
2022/04/14 07:06:59;;;;;;;31.57;11.68;;;;;;;9.78;44.51;99499.62;1748079;81;20991;-37
2022/04/14 07:09:33;;;;;;;27.65;10.93;;;;;;;9.87;44.50;99493.55;1748067;82;21492;-36
2022/04/14 07:12:01;;;;;;;34.35;12.00;;;;;;;9.94;44.32;99497.57;1747861;81;21461;-36
2022/04/14 07:14:29;;;;;;;28.57;11.08;;;;;;;10.04;44.30;99496.64;1747959;82;21038;-38
2022/04/14 07:16:57;;;;;;;33.23;12.13;;;;;;;10.15;44.23;99495.63;1748044;81;21038;-37
2022/04/14 07:19:22;;;;;;;23.52;11.20;;;;;;;10.30;44.22;99498.82;1748125;81;21042;-37
2022/04/14 07:21:48;;;;;;;30.20;12.15;;;;;;;10.43;43.98;99496.92;1747909;82;20994;-38
2022/04/14 07:24:14;;;;;;;29.57;11.78;;;;;;;10.54;43.80;99495.89;1748022;81;20991;-38
2022/04/14 07:26:40;;;;;;;29.45;12.80;;;;;;;10.67;43.66;99498.73;1748082;81;21477;-37
2022/04/14 07:29:06;;;;;;;28.40;12.43;;;;;;;10.84;43.60;99499.14;1748014;81;21540;-37
2022/04/14 07:31:32;;;;;;;29.25;12.13;;;;;;;10.98;43.67;99500.58;1748116;81;21496;-39
2022/04/14 07:33:59;;;;;;;27.93;11.57;;;;;;;11.13;43.74;99497.14;1748121;82;20995;-39
2022/04/14 07:36:27;;;;;;;26.30;11.85;;;;;;;11.29;43.58;99483.13;1748385;82;20999;-38
2022/04/14 07:38:53;;;;;;;34.00;12.43;;;;;;;11.46;43.13;99487.44;1748069;81;20964;-38
2022/04/14 07:41:18;;;;;;;33.55;13.35;;;;;;;11.66;42.89;99487.64;1748098;81;20996;-40
2022/04/14 07:43:44;;;;;;;28.60;12.43;;;;;;;11.84;42.88;99479.16;1755891;81;21007;-39
2022/04/14 07:46:10;;;;;;;31.65;13.13;;;;;;;12.05;42.71;99479.75;1761412;81;20999;-38
2022/04/14 07:48:36;;;;;;;22.65;11.73;;;;;;;12.26;42.59;99482.89;1761503;81;20999;-38
2022/04/14 07:51:02;;;;;;;27.60;12.45;;;;;;;12.44;42.46;99483.14;1761440;81;20995;-39
2022/04/14 07:53:31;;;;;;;31.57;11.47;;;;;;;12.67;42.19;99481.73;1761711;81;21473;-38
2022/04/14 07:55:56;;;;;;;27.45;12.35;;;;;;;12.89;41.85;99479.58;1761109;81;21031;-40
2022/04/14 07:58:22;;;;;;;27.52;12.23;;;;;;;13.11;41.69;99479.92;1761386;81;20994;-38
2022/04/14 08:00:50;;;;;;;28.23;12.95;;;;;;;13.33;41.73;99479.92;1761488;81;21023;-40
2022/04/14 08:03:16;;;;;;;33.40;13.48;;;;;;;13.51;40.80;99480.06;1761614;80;20994;-41
2022/04/14 08:05:45;;;;;;;31.07;12.35;;;;;;;13.71;40.71;99484.05;1761424;81;20995;-42
2022/04/14 08:08:14;;;;;;;36.17;13.38;;;;;;;13.95;40.25;99471.48;1761406;81;21003;-40
2022/04/14 08:10:42;;;;;;;27.70;12.95;;;;;;;14.17;39.77;99473.09;1761419;81;21042;-40
2022/04/14 08:13:08;;;;;;;29.20;13.28;;;;;;;14.43;39.52;99477.09;1761704;81;20967;-46
2022/04/14 08:15:36;;;;;;;28.20;12.55;;;;;;;14.66;39.19;99483.48;1761464;81;21519;-44
2022/04/14 08:18:03;;;;;;;34.13;13.22;;;;;;;14.87;39.07;99477.16;1761488;81;21017;-37
2022/04/14 08:20:30;;;;;;;31.25;14.60;;;;;;;15.10;38.12;99478.19;1761565;81;21038;-37
2022/04/14 08:23:00;;;;;;;34.15;13.45;;;;;;;15.32;38.02;99466.89;1761535;81;20975;-44
2022/04/14 08:25:29;;;;;;;32.20;13.30;;;;;;;15.47;38.21;99470.72;1761373;81;21026;-39
2022/04/14 08:27:58;;;;;;;37.88;13.72;;;;;;;15.62;38.16;99465.61;1761378;81;20995;-38
2022/04/14 08:30:27;;;;;;;24.18;12.50;;;;;;;15.85;37.99;99467.09;1761426;81;21030;-41
2022/04/14 08:32:54;;;;;;;24.85;12.82;;;;;;;16.04;37.61;99460.75;1761405;80;21579;-37
2022/04/14 08:35:21;;;;;;;28.80;13.08;;;;;;;16.26;37.59;99465.77;1761310;81;20947;-40
2022/04/14 08:37:49;;;;;;;25.20;12.68;;;;;;;16.44;37.23;99462.19;1761480;81;21002;-37
2022/04/14 08:40:23;;;;;;;26.87;13.95;;;;;;;16.62;37.08;99458.59;1761585;81;20994;-38
2022/04/14 08:43:02;;;;;;;32.42;13.78;;;;;;;16.77;36.46;99459.20;1759199;81;21022;-41
2022/04/14 08:45:31;;;;;;;25.75;12.82;;;;;;;16.86;36.51;99454.52;1739738;82;20996;-41
2022/04/14 08:48:00;;;;;;;28.85;13.88;;;;;;;16.99;36.59;99463.23;1740283;82;20955;-40
2022/04/14 08:50:27;;;;;;;24.43;13.45;;;;;;;17.09;36.17;99459.35;1746405;82;21019;-38
2022/04/14 08:52:53;;;;;;;28.57;14.45;;;;;;;17.16;35.80;99452.58;1746749;82;21594;-40
2022/04/14 08:55:20;;;;;;;28.40;13.18;;;;;;;17.30;35.66;99446.63;1746453;82;21080;-39
2022/04/14 08:57:47;;;;;;;25.52;13.35;;;;;;;17.54;35.60;99449.12;1745063;82;20991;-40
2022/04/14 09:00:16;;;;;;;26.95;13.70;;;;;;;17.76;35.43;99443.72;1739442;81;21043;-41
2022/04/14 09:02:45;;;;;;;26.70;12.82;;;;;;;17.95;33.42;99439.05;1739647;82;20964;-38
2022/04/14 09:05:19;;;;;;;30.57;13.40;;;;;;;18.12;33.00;99439.45;1738927;82;21051;-39
2022/04/14 09:07:42;;;;;;;39.15;14.10;;;;;;;18.28;33.50;99439.88;1739698;82;21020;-39
2022/04/14 09:10:09;;;;;;;21.73;12.10;;;;;;;18.41;33.04;99442.33;1739568;82;21004;-38
2022/04/14 09:12:37;;;;;;;31.40;12.77;;;;;;;18.60;33.65;99442.91;1740110;81;20968;-39
2022/04/14 09:15:05;;;;;;;25.20;12.07;;;;;;;18.69;33.39;99442.11;1739673;82;20988;-36
2022/04/14 09:17:31;;;;;;;25.45;12.68;;;;;;;18.96;33.70;99433.56;1739514;81;20972;-37
2022/04/14 09:19:57;;;;;;;20.60;11.78;;;;;;;19.20;32.49;99427.53;1739676;82;20980;-37
2022/04/14 09:22:23;;;;;;;16.30;10.72;;;;;;;19.47;32.76;99425.05;1739597;82;20953;-38
2022/04/14 09:24:53;;;;;;;32.28;10.93;;;;;;;19.90;31.85;99418.97;1739780;82;21125;-37
2022/04/14 09:27:28;;;;;;;17.67;10.43;;;;;;;20.47;32.95;99419.03;1739322;82;20964;-42
2022/04/14 09:29:57;;;;;;;19.02;10.98;;;;;;;20.92;31.19;99414.80;1737399;81;21055;-37
2022/04/14 09:32:43;;;;;;;23.60;12.10;;;;;;;21.45;30.60;99409.59;1741242;82;21314;-38
2022/04/14 09:35:19;;;;;;;23.50;11.12;;;;;;;21.82;30.41;99411.77;1762060;81;20983;-37
2022/04/14 09:37:45;;;;;;;22.65;10.98;;;;;;;22.01;29.57;99413.41;1772735;80;21006;-40
2022/04/14 09:40:12;;;;;;;24.52;12.60;;;;;;;22.19;29.69;99405.34;1774225;80;20983;-39
2022/04/14 09:42:41;;;;;;;20.12;12.00;;;;;;;22.45;29.50;99405.87;1749676;81;21081;-38
2022/04/14 09:45:23;;;;;;;21.65;11.25;;;;;;;22.64;29.22;99400.80;1781444;80;20999;-39
2022/04/14 09:47:50;;;;;;;20.48;11.68;;;;;;;22.77;27.71;99401.19;1782377;80;20989;-37
2022/04/14 09:50:35;;;;;;;31.73;11.75;;;;;;;22.85;26.18;99400.38;1782266;80;20955;-40
2022/04/14 09:53:12;;;;;;;22.60;10.63;;;;;;;22.88;26.64;99392.85;1782172;80;20939;-37
2022/04/14 09:55:42;;;;;;;24.50;11.30;;;;;;;23.24;25.94;99381.11;1781536;80;21479;-38
2022/04/14 09:58:17;;;;;;;22.62;11.25;;;;;;;23.63;27.10;99382.69;1782382;80;20970;-39
2022/04/14 10:00:49;;;;;;;27.30;11.43;;;;;;;23.84;26.65;99380.02;1782298;80;21503;-40
2022/04/14 10:03:28;;;;;;;27.05;11.40;;;;;;;24.08;26.13;99377.81;1780729;80;21034;-39
2022/04/14 10:05:58;;;;;;;20.95;11.12;;;;;;;24.12;26.35;99378.66;1781839;80;20975;-38
2022/04/14 10:08:25;;;;;;;20.70;11.65;;;;;;;23.93;23.77;99373.64;1775531;80;21053;-40
2022/04/14 10:11:04;;;;;;;22.98;11.80;;;;;;;24.30;25.62;99364.17;1771261;80;20979;-40
2022/04/14 10:13:36;;;;;;;20.80;11.48;;;;;;;24.61;25.04;99368.30;1760598;81;20991;-40
2022/04/14 10:16:02;;;;;;;17.00;9.95;;;;;;;24.80;24.81;99371.10;1761270;81;21003;-40
2022/04/14 10:18:28;;;;;;;16.30;9.60;;;;;;;25.14;24.83;99361.86;1761404;81;21046;-41
2022/04/14 10:20:54;;;;;;;16.23;10.40;;;;;;;25.52;24.26;99363.30;1761519;81;20999;-40
2022/04/14 10:23:22;;;;;;;16.45;9.50;;;;;;;25.57;22.04;99353.34;1761266;81;21437;-39
2022/04/14 10:25:50;;;;;;;17.25;8.88;;;;;;;25.81;23.45;99361.72;1761138;81;20955;-39
2022/04/14 10:28:17;;;;;;;14.50;8.95;;;;;;;25.86;23.57;99356.63;1761007;80;21705;-36
2022/04/14 10:30:57;;;;;;;16.95;8.20;;;;;;;26.02;23.01;99347.08;1761516;81;20964;-37
2022/04/14 10:33:24;;;;;;;16.95;8.88;;;;;;;26.39;22.09;99353.94;1761054;81;20995;-39
2022/04/14 10:35:52;;;;;;;18.65;8.85;;;;;;;26.47;22.46;99357.05;1761192;81;21023;-39
2022/04/14 10:38:36;;;;;;;27.42;10.30;;;;;;;26.28;20.34;99346.32;1761219;81;21451;-37
2022/04/14 10:41:21;;;;;;;17.27;10.50;;;;;;;26.34;21.92;99349.61;1761141;81;21092;-37
2022/04/14 10:43:48;;;;;;;13.53;9.30;;;;;;;26.29;21.17;99350.19;1755955;81;21504;-39
2022/04/14 10:46:15;;;;;;;16.70;9.65;;;;;;;26.51;22.08;99348.42;1761227;80;20987;-39
2022/04/14 10:48:44;;;;;;;15.43;9.18;;;;;;;26.58;21.99;99339.91;1783222;80;20942;-40
2022/04/14 10:51:32;;;;;;;12.70;8.00;;;;;;;26.54;21.52;99338.61;1792737;79;21029;-39
2022/04/14 10:54:05;;;;;;;13.08;8.63;;;;;;;26.78;21.32;99333.45;1792307;80;21052;-40
2022/04/14 10:56:43;;;;;;;21.57;8.65;;;;;;;26.85;21.77;99338.08;1792850;80;20994;-37
2022/04/14 10:59:21;;;;;;;15.60;9.03;;;;;;;27.20;21.47;99336.41;1793126;79;20990;-37
2022/04/14 11:01:51;;;;;;;16.60;8.90;;;;;;;27.48;21.04;99325.70;1792782;80;21004;-47
2022/04/14 11:04:30;;;;;;;14.05;7.97;;;;;;;27.67;21.12;99334.17;1793266;80;21435;-39
2022/04/14 11:07:11;;;;;;;13.78;7.95;;;;;;;27.98;20.83;99334.34;1793079;80;20970;-38
2022/04/14 11:09:45;;;;;;;14.00;7.90;;;;;;;28.17;20.71;99329.59;1793369;79;21025;-36
2022/04/14 11:12:37;;;;;;;17.10;8.50;;;;;;;28.01;19.63;99330.73;1793100;80;21677;-37
2022/04/14 11:15:07;;;;;;;10.30;7.25;;;;;;;28.17;20.28;99328.24;1780278;80;21566;-38
2022/04/14 11:17:42;;;;;;;11.48;8.78;;;;;;;28.13;20.03;99331.86;1792173;79;20982;-38
2022/04/14 11:20:16;;;;;;;19.35;8.93;;;;;;;27.94;19.30;99336.11;1793292;80;21016;-38
2022/04/14 11:23:08;;;;;;;14.90;8.40;;;;;;;27.87;19.00;99332.98;1793164;80;20989;-38
2022/04/14 11:25:51;;;;;;;17.82;8.50;;;;;;;28.05;19.72;99340.14;1793131;79;21060;-39
2022/04/14 11:28:31;;;;;;;16.50;9.20;;;;;;;27.94;19.44;99336.59;1793134;80;20958;-38
2022/04/14 11:31:04;;;;;;;15.93;9.23;;;;;;;28.06;19.35;99332.86;1792016;79;20958;-38
2022/04/14 11:33:35;;;;;;;14.85;8.98;;;;;;;28.45;19.49;99328.70;1793119;79;21466;-39
2022/04/14 11:36:20;;;;;;;16.45;8.65;;;;;;;28.62;18.80;99323.33;1792916;80;21033;-37
2022/04/14 11:39:02;;;;;;;13.30;9.25;;;;;;;28.87;18.69;99321.42;1793558;80;21471;-38
2022/04/14 11:41:49;;;;;;;13.95;8.90;;;;;;;27.70;18.58;99309.47;1793118;79;21017;-37
2022/04/14 11:44:34;;;;;;;12.63;9.03;;;;;;;28.65;19.15;99315.31;1791662;80;21441;-36
2022/04/14 11:47:04;;;;;;;14.35;8.75;;;;;;;29.40;18.99;99299.93;1791950;80;21563;-37
2022/04/14 11:49:32;;;;;;;14.10;7.95;;;;;;;29.40;18.99;99299.93;1793128;79;21021;-39
2022/04/14 11:52:03;;;;;;;12.50;7.67;;;;;;;29.51;18.09;99303.90;1792802;80;21021;-37
2022/04/14 11:54:34;;;;;;;13.72;8.10;;;;;;;29.65;17.53;99302.00;1793087;80;21145;-38
2022/04/14 11:57:07;;;;;;;12.05;7.75;;;;;;;29.64;18.47;99303.06;1792931;80;21013;-38
2022/04/14 11:59:41;;;;;;;12.30;7.08;;;;;;;29.64;18.47;99303.06;1793296;79;21819;-36
2022/04/14 12:02:18;;;;;;;14.58;6.72;;;;;;;29.88;18.25;99299.44;1792313;79;21096;-39
2022/04/14 12:04:48;;;;;;;11.55;7.53;;;;;;;29.71;18.09;99302.55;1793183;80;21562;-37
2022/04/14 12:07:15;;;;;;;14.30;7.80;;;;;;;29.87;17.89;99302.64;1793035;80;21170;-36
2022/04/14 12:09:42;;;;;;;10.03;6.45;;;;;;;29.72;16.92;99297.95;1792394;79;21100;-37
2022/04/14 12:12:18;;;;;;;10.32;7.58;;;;;;;29.90;17.29;99297.34;1793089;80;21102;-36
2022/04/14 12:14:47;;;;;;;7.55;5.97;;;;;;;29.83;17.05;99296.84;1793247;80;20982;-36
2022/04/14 12:17:23;;;;;;;10.58;6.60;;;;;;;29.59;16.84;99296.08;1791880;80;21009;-37
2022/04/14 12:19:58;;;;;;;9.30;6.10;;;;;;;29.71;16.93;99287.64;1793002;79;21566;-36
2022/04/14 12:22:30;;;;;;;11.22;5.45;;;;;;;30.26;16.70;99289.25;1793096;79;20986;-38
2022/04/14 12:25:00;;;;;;;9.15;5.55;;;;;;;30.49;16.14;99279.27;1792945;79;21011;-39
2022/04/14 12:27:34;;;;;;;13.75;6.85;;;;;;;30.92;16.48;99286.30;1793189;80;20997;-36
2022/04/14 12:30:05;;;;;;;15.20;7.03;;;;;;;31.11;14.54;99282.34;1791592;80;21522;-38
2022/04/14 12:32:30;;;;;;;7.67;5.90;;;;;;;31.95;15.60;99284.28;1793291;80;21479;-37
2022/04/14 12:34:57;;;;;;;13.53;6.95;;;;;;;32.36;15.34;99277.36;1793097;79;20961;-37
2022/04/14 12:37:37;;;;;;;21.00;7.10;;;;;;;32.76;15.48;99277.42;1793068;79;20977;-37
2022/04/14 12:40:13;;;;;;;10.20;6.87;;;;;;;33.17;14.82;99275.30;1793058;80;20993;-39
2022/04/14 12:42:42;;;;;;;10.00;6.75;;;;;;;33.78;14.89;99276.52;1793076;79;21455;-37
2022/04/14 12:45:12;;;;;;;10.65;6.62;;;;;;;34.20;14.38;99273.66;1787349;80;21006;-37
2022/04/14 12:47:44;;;;;;;9.13;7.33;;;;;;;34.34;14.64;99270.15;1784016;80;20947;-38
2022/04/14 12:50:18;;;;;;;11.80;7.20;;;;;;;34.74;14.18;99273.44;1784037;80;21049;-37
2022/04/14 12:52:50;;;;;;;12.68;7.12;;;;;;;34.55;13.23;99279.05;1783262;79;20978;-37
2022/04/14 12:55:28;;;;;;;9.60;6.83;;;;;;;34.65;14.00;99271.59;1782198;80;21026;-37
2022/04/14 12:58:13;;;;;;;9.48;7.28;;;;;;;35.01;13.86;99260.55;1782910;80;21464;-36
2022/04/14 13:00:40;;;;;;;;;;;;;;;35.30;13.38;99261.36;1786858;79;21017;-37
2022/04/14 13:03:18;;;;;;;9.48;6.85;;;;;;;34.95;13.14;99247.34;1784005;80;20116;-37
2022/04/14 13:05:44;;;;;;;9.58;6.87;;;;;;;35.34;13.49;99242.00;1784145;80;21038;-36
2022/04/14 13:08:12;;;;;;;11.45;7.70;;;;;;;35.35;12.88;99239.58;1784231;80;21013;-38
2022/04/14 13:10:45;;;;;;;11.30;7.42;;;;;;;35.30;12.77;99235.38;1751045;79;20979;-39
2022/04/14 13:13:30;;;;;;;8.85;6.65;;;;;;;35.27;13.08;99235.88;1737698;82;20952;-36
2022/04/14 13:15:56;;;;;;;8.28;7.28;;;;;;;34.74;12.82;99239.30;1747229;81;21024;-37
2022/04/14 13:18:22;;;;;;;14.03;6.95;;;;;;;34.43;13.46;99238.13;1746684;81;20984;-38
2022/04/14 13:20:48;;;;;;;15.32;7.28;;;;;;;33.98;13.49;99229.27;1747393;82;21011;-37
2022/04/14 13:23:18;;;;;;;14.43;6.75;;;;;;;32.83;14.05;99225.06;1745846;82;21023;-36
2022/04/14 13:25:42;;;;;;;8.38;6.45;;;;;;;32.01;14.65;99227.62;1747446;81;20964;-37
2022/04/14 13:28:11;;;;;;;9.07;6.57;;;;;;;31.39;15.07;99222.96;1748194;81;21000;-37
2022/04/14 13:30:37;;;;;;;11.15;7.40;;;;;;;30.82;15.05;99224.83;1747794;81;21023;-38
2022/04/14 13:33:07;;;;;;;10.38;6.40;;;;;;;30.04;15.26;99223.07;1747752;82;21011;-37
2022/04/14 13:35:32;;;;;;;9.28;6.72;;;;;;;29.42;16.32;99223.35;1746121;81;21031;-37
2022/04/14 13:37:58;;;;;;;9.48;6.55;;;;;;;29.21;16.38;99221.67;1747770;81;21030;-38
2022/04/14 13:40:24;;;;;;;11.60;6.83;;;;;;;28.97;16.29;99219.55;1747912;81;21061;-38
2022/04/14 13:42:50;;;;;;;9.87;6.37;;;;;;;28.58;16.54;99224.67;1747625;82;21051;-38
2022/04/14 13:45:16;;;;;;;7.33;6.05;;;;;;;28.11;16.58;99224.97;1748038;81;21016;-37
2022/04/14 13:47:45;;;;;;;12.10;6.08;;;;;;;27.77;16.92;99221.20;1748015;81;21043;-37
2022/04/14 13:50:15;;;;;;;8.05;5.97;;;;;;;27.36;17.19;99216.03;1747956;82;21497;-37
2022/04/14 13:52:42;;;;;;;9.33;5.60;;;;;;;27.23;17.62;99223.15;1748029;81;21099;-37
2022/04/14 13:55:09;;;;;;;8.90;5.75;;;;;;;26.88;17.52;99223.03;1748146;81;21031;-36
2022/04/14 13:57:38;;;;;;;10.60;6.58;;;;;;;26.54;18.21;99219.96;1747982;82;20976;-36
2022/04/14 14:00:07;;;;;;;12.18;5.95;;;;;;;26.35;18.11;99219.20;1747870;81;20983;-37
2022/04/14 14:02:33;;;;;;;9.88;6.53;;;;;;;26.17;19.03;99215.03;1747931;82;21476;-37
2022/04/14 14:04:59;;;;;;;10.18;6.08;;;;;;;26.15;18.58;99215.73;1747729;81;21059;-37
2022/04/14 14:07:26;;;;;;;8.35;5.87;;;;;;;25.94;18.95;99221.04;1746920;81;20992;-37
2022/04/14 14:09:52;;;;;;;;;;;;;;;25.90;18.66;99215.67;1750417;82;21026;-35
2022/04/14 14:12:17;;;;;;;10.47;5.93;;;;;;;25.67;19.00;99217.44;1748127;82;20209;-36
2022/04/14 14:14:43;;;;;;;10.32;6.08;;;;;;;25.63;19.52;99214.79;1747812;81;20999;-38
2022/04/14 14:17:09;;;;;;;11.53;5.62;;;;;;;25.46;19.30;99213.27;1747916;81;21143;-36